createdAt,value
2022-10-04T09:33:34.222Z,11.20
2022-10-04T09:44:15.560Z,12.10
2022-10-04T09:54:44.429Z,12.10
2022-10-04T10:05:08.799Z,12.20
2022-10-04T10:15:38.441Z,12.90
2022-10-04T10:26:07.501Z,13.20
2022-10-04T10:36:37.383Z,13.50
2022-10-04T10:47:01.597Z,13.90
2022-10-04T10:57:36.783Z,14.50
2022-10-04T11:08:17.862Z,14.40
2022-10-04T11:18:57.200Z,14.50
2022-10-04T11:29:22.579Z,14.90
2022-10-04T11:39:52.864Z,15.10
2022-10-04T11:50:24.458Z,15.70
2022-10-04T12:00:47.519Z,15.50
2022-10-04T12:11:28.382Z,16.40
2022-10-04T12:21:49.364Z,16.60
2022-10-04T12:32:08.230Z,16.40
2022-10-04T12:42:32.398Z,16.80
2022-10-04T12:53:06.455Z,17.10
2022-10-04T13:03:18.017Z,17.60
2022-10-04T13:13:48.938Z,17.80
2022-10-04T13:24:15.346Z,18.00
2022-10-04T13:34:44.497Z,18.10
2022-10-04T13:44:57.220Z,18.40
2022-10-04T13:55:55.319Z,18.60
2022-10-04T14:06:24.379Z,18.80
2022-10-04T14:16:44.861Z,19.00
2022-10-04T14:26:48.640Z,19.00
2022-10-04T14:37:49.498Z,19.10
2022-10-04T14:48:18.197Z,19.20
2022-10-04T14:58:31.784Z,19.20
2022-10-04T15:08:58.421Z,19.00
2022-10-04T15:19:07.257Z,19.00
2022-10-04T15:29:34.699Z,18.90
2022-10-04T15:40:02.756Z,18.60
2022-10-04T15:50:27.341Z,18.60
2022-10-04T16:00:35.422Z,18.60
2022-10-04T16:11:12.603Z,18.30
2022-10-04T16:21:44.180Z,17.90
2022-10-04T16:31:56.444Z,17.60
2022-10-04T16:42:11.954Z,17.10
2022-10-04T16:52:36.001Z,16.40
2022-10-04T17:02:51.526Z,15.90
2022-10-04T17:13:00.200Z,15.20
2022-10-04T17:23:12.015Z,14.60
2022-10-04T17:33:24.798Z,14.30
2022-10-04T17:44:08.795Z,14.00
2022-10-04T17:54:54.121Z,13.80
2022-10-04T18:05:12.256Z,13.50
2022-10-04T18:15:35.303Z,13.30
2022-10-04T18:25:53.016Z,13.00
2022-10-04T18:36:18.243Z,12.80
2022-10-04T18:46:23.556Z,12.70
2022-10-04T18:56:28.432Z,12.50
2022-10-04T19:06:42.258Z,12.30
2022-10-04T19:17:09.840Z,12.20
2022-10-04T19:27:52.582Z,12.10
2022-10-04T19:38:15.961Z,11.90
